Fergus Falls, MN

11:09 AM CST on December 26, 2014 (GMT -0600)
Elbow Lake | Change Station
CLOSE
Current Station
Airport
Location: Elbow Lake,
Elevation: 1204 ft
Nearby Weather Stations
Active Advisory: Special Statement

Elev 1204 ft 45.99 °N, 95.99 °W | Updated 15 minutes ago

Overcast
Overcast
24 °F
Feels Like 11 °F
N
16
Wind Variable Wind from NNW

Today
High -- | Low -- °F
--% Chance of Precip.
Yesterday
High -- | Low -- °F
Precip. -- in
8:06 AM 4:43 PM
Waxing Crescent, 27% visible
Pressure 30.10 in
Visibility 10.0 miles
Clouds Overcast 700 ft
Windchill 11 °F
Dew Point 22 °F
Humidity 93%
Rainfall 0.00 in
Snow Depth Not available.
UV 0 out of 12
Pollen .10 out of 12
Air Quality Not available.
Flu Activity Not available.
METAR KY63 261654Z AUTO 34014KT 10SM OVC007 M04/M05 A3010 RMK AO2 T10451055

More Conditions Fewer Conditions

Pressure 30.10 in
Visibility 10.0 miles
Clouds Overcast 700 ft
Windchill 11 °F
Dew Point 22 °F
Humidity 93%
Rainfall 0.00 in
Snow Depth Not available.
UV 0 out of 12
Pollen .10 out of 12
Air Quality Not available.
Flu Activity Not available.
METAR KY63 261654Z AUTO 34014KT 10SM OVC007 M04/M05 A3010 RMK AO2 T10451055

More Conditions Fewer Conditions

10-Day Weather Forecast

Almanac

Astronomy

Dec. 26, 2014 Rise Set
Actual Time
Civil Twilight
Nautical Twilight
Astronomical Twilight
Moon
Length of Visible Light
Length of Day
Tomorrow will be .
, % of the Moon is Illuminated

Today's Extremes

State Highs State Lows

Community

WunderPhotos

Upload Photos

1,780,639 photos uploaded!

WunderBlogs® & News

Nearby

Air Quality

  Air Quality AQ Index Pollutant
Not available.

Snow Depth

Station Depth Elevation

Earthquake Activity

City Distance Mag. Time & Date
Minimum magnitude displayed is 2.5.

Coastal Water Temperatures

Place Temperature

Nearby Weather Stations